Terminal Aerodrome Forecast
Issued by NWS Brownsville, TX

Home | Current Version | Previous Version | Text Only | Print | Product List | Glossary On
Versions: 1 2 3 4 5 6 7 8 9 10 11 12 13 14 15 16 17 18
000
FTUS44 KBRO 312300 RRA
TAFHRL
TAF
KHRL 312342Z 0100/0124 13014G21KT P6SM SKC
     FM010300 15010KT P6SM FEW025
     FM010900 14006KT P6SM SCT020
      TEMPO 0110/0113 BKN020
     FM011400 17012KT P6SM SCT030
     FM011800 14013G19KT P6SM SCT040 SCT150=

USA.gov is the U.S. government's official web portal to all federal, state and local government web resources and services.